Time;durP1;ratioP1;P1;durP2;ratioP2;P2;SDS_P1;SDS_P2;PMS_P1;PMS_P2;Temp;Humidity;BMP_temperature;BMP_pressure;BME280_temperature;BME280_humidity;BME280_pressure;Samples;Min_cycle;Max_cycle;Signal;HPM_P1;HPM_P2
2022/01/27 00:05:03;;;;;;;16.83;7.65;;;;;;;;;;5028252;28;20555;-56
2022/01/27 00:07:30;;;;;;;18.58;8.55;;;;;;;;;;5029935;28;20037;-56
2022/01/27 00:12:35;;;;;;;15.38;8.10;;;;;;;;;;5036844;28;20039;-56
2022/01/27 00:15:10;;;;;;;16.42;8.32;;;;;;;;;;5030875;28;20092;-55
2022/01/27 00:17:41;;;;;;;13.80;7.20;;;;;;;;;;5028018;28;20413;-56
2022/01/27 00:20:08;;;;;;;14.90;7.65;;;;;;;;;;5039486;28;20036;-55
2022/01/27 00:22:35;;;;;;;16.52;7.50;;;;;;;;;;5031037;28;20039;-56
2022/01/27 00:25:03;;;;;;;13.80;7.68;;;;;;;;;;5026802;28;20503;-56
2022/01/27 00:27:29;;;;;;;14.63;7.32;;;;;;;;;;5044288;28;20055;-55
2022/01/27 00:29:55;;;;;;;16.17;7.88;;;;;;;;;;5045600;28;20118;-56
2022/01/27 00:32:22;;;;;;;14.05;6.90;;;;;;;;;;5045155;28;20531;-56
2022/01/27 00:34:48;;;;;;;13.85;6.88;;;;;;;;;;5041202;28;20029;-56
2022/01/27 00:37:14;;;;;;;15.07;7.63;;;;;;;;;;5036989;28;20040;-57
2022/01/27 00:39:40;;;;;;;13.13;6.68;;;;;;;;;;5040927;28;20508;-57
2022/01/27 00:42:06;;;;;;;13.55;6.90;;;;;;;;;;5045327;28;20021;-57
2022/01/27 00:44:32;;;;;;;14.32;7.32;;;;;;;;;;5044884;28;20037;-57
2022/01/27 00:46:58;;;;;;;13.18;6.50;;;;;;;;;;5043320;28;20075;-57
2022/01/27 00:49:25;;;;;;;13.07;6.82;;;;;;;;;;5023468;28;20033;-57
2022/01/27 00:51:51;;;;;;;14.68;7.28;;;;;;;;;;5040576;28;20045;-57
2022/01/27 00:54:24;;;;;;;13.40;6.78;;;;;;;;;;5025921;28;20036;-57
2022/01/27 00:59:51;;;;;;;14.18;7.13;;;;;;;;;;5024743;28;20044;-57
2022/01/27 01:03:08;;;;;;;14.52;7.38;;;;;;;;;;5043106;28;20492;-57
2022/01/27 01:07:37;;;;;;;14.40;8.20;;;;;;;;;;5024272;28;20128;-57
2022/01/27 01:15:20;;;;;;;18.20;8.77;;;;;;;;;;5025467;28;20029;-57
2022/01/27 01:17:58;;;;;;;17.73;8.77;;;;;;;;;;5023838;28;20028;-57
2022/01/27 01:20:53;;;;;;;15.70;8.63;;;;;;;;;;5024941;28;20164;-57
2022/01/27 01:36:55;;;;;;;23.17;10.82;;;;;;;;;;5023890;28;20033;-57
2022/01/27 01:39:22;;;;;;;22.20;11.52;;;;;;;;;;5024415;28;20101;-57
2022/01/27 01:41:49;;;;;;;20.77;11.07;;;;;;;;;;5026912;28;20155;-57
2022/01/27 01:44:15;;;;;;;20.35;10.55;;;;;;;;;;5033349;28;20028;-57
2022/01/27 01:46:41;;;;;;;20.33;10.35;;;;;;;;;;5043698;28;20110;-57
2022/01/27 01:49:07;;;;;;;22.40;11.25;;;;;;;;;;5044147;28;20079;-57
2022/01/27 01:51:35;;;;;;;18.98;10.05;;;;;;;;;;5042285;28;20021;-57
2022/01/27 01:54:01;;;;;;;17.90;9.35;;;;;;;;;;5038835;28;20519;-57
2022/01/27 01:56:27;;;;;;;16.45;8.82;;;;;;;;;;5022560;28;20516;-57
2022/01/27 01:58:53;;;;;;;21.65;9.82;;;;;;;;;;5022807;28;20038;-57
2022/01/27 02:01:20;;;;;;;19.67;9.85;;;;;;;;;;5024520;28;20114;-57
2022/01/27 02:03:47;;;;;;;18.92;9.80;;;;;;;;;;5026594;28;20284;-57
2022/01/27 02:06:23;;;;;;;18.85;8.98;;;;;;;;;;5023851;28;20036;-57
2022/01/27 02:09:10;;;;;;;18.17;9.50;;;;;;;;;;5024238;28;20044;-57
2022/01/27 02:19:53;;;;;;;19.25;8.95;;;;;;;;;;5023825;28;20087;-57
2022/01/27 02:22:21;;;;;;;19.52;9.63;;;;;;;;;;5023609;28;20048;-57
2022/01/27 02:24:47;;;;;;;18.05;9.32;;;;;;;;;;5024473;28;20029;-57
2022/01/27 02:27:15;;;;;;;18.88;9.10;;;;;;;;;;5038948;28;20044;-57
2022/01/27 02:29:41;;;;;;;20.63;9.32;;;;;;;;;;5026471;28;20338;-57
2022/01/27 02:32:07;;;;;;;16.40;7.82;;;;;;;;;;5027058;28;20088;-57
2022/01/27 02:34:33;;;;;;;16.63;7.53;;;;;;;;;;5027874;28;20053;-57
2022/01/27 02:36:59;;;;;;;16.20;8.32;;;;;;;;;;5027743;28;20436;-57
2022/01/27 02:39:25;;;;;;;19.63;9.20;;;;;;;;;;5026116;28;20510;-57
2022/01/27 02:41:57;;;;;;;16.27;8.45;;;;;;;;;;5027541;28;20152;-57
2022/01/27 02:44:34;;;;;;;19.60;8.45;;;;;;;;;;5027543;28;20030;-57
2022/01/27 02:47:00;;;;;;;17.77;8.32;;;;;;;;;;5027327;28;20099;-57
2022/01/27 02:49:27;;;;;;;20.17;9.27;;;;;;;;;;5027457;28;20033;-57
2022/01/27 02:51:53;;;;;;;18.65;8.65;;;;;;;;;;5039811;28;20064;-57
2022/01/27 02:54:19;;;;;;;17.95;8.88;;;;;;;;;;5049885;28;20029;-57
2022/01/27 02:56:47;;;;;;;17.27;8.25;;;;;;;;;;5049663;28;20072;-57
2022/01/27 02:59:14;;;;;;;18.15;8.55;;;;;;;;;;5049464;28;20048;-57
2022/01/27 03:01:45;;;;;;;16.73;8.68;;;;;;;;;;5041543;28;20022;-57
2022/01/27 03:04:11;;;;;;;17.50;8.35;;;;;;;;;;5029422;28;20055;-57
2022/01/27 03:06:38;;;;;;;19.15;8.88;;;;;;;;;;5029028;28;20025;-57
2022/01/27 03:09:05;;;;;;;18.45;9.30;;;;;;;;;;5029292;28;20033;-57
2022/01/27 03:11:37;;;;;;;17.50;8.32;;;;;;;;;;5028392;28;20117;-57
2022/01/27 03:14:04;;;;;;;19.63;8.63;;;;;;;;;;5046061;28;20108;-57
2022/01/27 03:16:30;;;;;;;17.45;8.57;;;;;;;;;;5048606;28;20036;-57
2022/01/27 03:18:56;;;;;;;20.02;8.50;;;;;;;;;;5048560;28;20604;-57
2022/01/27 03:21:22;;;;;;;15.43;7.80;;;;;;;;;;5048004;28;20060;-57
2022/01/27 03:23:48;;;;;;;14.30;7.43;;;;;;;;;;5046591;28;20030;-57
2022/01/27 03:26:14;;;;;;;15.88;8.15;;;;;;;;;;5049596;28;20028;-57
2022/01/27 03:28:40;;;;;;;15.40;7.20;;;;;;;;;;5048487;28;20025;-56
2022/01/27 03:31:06;;;;;;;17.98;7.78;;;;;;;;;;5048711;28;20094;-57
2022/01/27 03:33:33;;;;;;;17.30;7.72;;;;;;;;;;5029705;28;20037;-57
2022/01/27 03:35:59;;;;;;;16.40;7.72;;;;;;;;;;5028844;28;20728;-56
2022/01/27 03:38:25;;;;;;;14.23;6.93;;;;;;;;;;5028362;28;20032;-57
2022/01/27 03:40:51;;;;;;;15.43;7.90;;;;;;;;;;5028883;28;20199;-56
2022/01/27 03:43:17;;;;;;;16.23;7.38;;;;;;;;;;5028854;28;20022;-57
2022/01/27 03:45:43;;;;;;;16.23;7.50;;;;;;;;;;5028172;28;20835;-57
2022/01/27 03:48:09;;;;;;;16.48;8.10;;;;;;;;;;5028433;28;20561;-57
2022/01/27 03:50:35;;;;;;;17.42;8.00;;;;;;;;;;5037848;28;20044;-57
2022/01/27 03:53:01;;;;;;;17.20;8.82;;;;;;;;;;5040186;28;20052;-57
2022/01/27 03:55:28;;;;;;;23.42;11.18;;;;;;;;;;5047856;28;20033;-57
2022/01/27 03:57:54;;;;;;;22.88;10.45;;;;;;;;;;5031754;28;20020;-57
2022/01/27 04:00:20;;;;;;;20.83;9.65;;;;;;;;;;5028329;28;20412;-57
2022/01/27 04:03:07;;;;;;;17.33;9.10;;;;;;;;;;5028124;28;20057;-57
2022/01/27 04:05:37;;;;;;;21.35;9.82;;;;;;;;;;5047541;28;20083;-57
2022/01/27 04:08:04;;;;;;;17.77;8.32;;;;;;;;;;5047566;28;20033;-57
2022/01/27 04:10:30;;;;;;;21.50;10.15;;;;;;;;;;5047486;28;20037;-57
2022/01/27 04:12:56;;;;;;;17.48;8.77;;;;;;;;;;5042249;28;20029;-57
2022/01/27 04:15:22;;;;;;;18.17;8.40;;;;;;;;;;5047974;28;20025;-57
2022/01/27 04:17:48;;;;;;;18.20;8.73;;;;;;;;;;5048240;28;20404;-57
2022/01/27 04:20:14;;;;;;;16.08;8.15;;;;;;;;;;5048302;28;20506;-57
2022/01/27 04:22:41;;;;;;;19.17;8.55;;;;;;;;;;5043446;28;20476;-57
2022/01/27 04:25:07;;;;;;;15.68;7.65;;;;;;;;;;5027883;28;20040;-57
2022/01/27 04:27:36;;;;;;;16.23;7.75;;;;;;;;;;5027384;28;20044;-57
2022/01/27 04:30:05;;;;;;;17.73;8.80;;;;;;;;;;5027598;28;20030;-57
2022/01/27 04:32:39;;;;;;;19.05;7.85;;;;;;;;;;5037669;28;20407;-57
2022/01/27 04:35:07;;;;;;;13.60;7.30;;;;;;;;;;5047653;28;20112;-56
2022/01/27 04:37:39;;;;;;;14.45;7.05;;;;;;;;;;5047220;28;20393;-57
2022/01/27 04:40:12;;;;;;;15.68;6.72;;;;;;;;;;5047431;28;20132;-57
2022/01/27 04:45:15;;;;;;;16.58;7.82;;;;;;;;;;5047213;28;20029;-57
2022/01/27 04:47:46;;;;;;;14.20;6.80;;;;;;;;;;5047021;28;20020;-57
2022/01/27 04:50:12;;;;;;;15.30;7.00;;;;;;;;;;5047341;28;20667;-57
2022/01/27 04:52:43;;;;;;;14.55;6.88;;;;;;;;;;5044009;28;20408;-57
2022/01/27 04:55:10;;;;;;;13.73;7.40;;;;;;;;;;5046657;28;20037;-57
2022/01/27 04:57:40;;;;;;;16.10;7.50;;;;;;;;;;5046891;28;20021;-57
2022/01/27 05:00:07;;;;;;;16.02;8.07;;;;;;;;;;5028558;28;20021;-57
2022/01/27 05:02:50;;;;;;;15.82;8.05;;;;;;;;;;5026838;28;20475;-57
2022/01/27 05:05:16;;;;;;;15.45;7.63;;;;;;;;;;5027625;28;20052;-57
2022/01/27 05:07:42;;;;;;;15.38;7.72;;;;;;;;;;5025244;28;20459;-57
2022/01/27 05:10:15;;;;;;;18.95;9.40;;;;;;;;;;5037877;28;20037;-57
2022/01/27 05:12:48;;;;;;;17.27;8.10;;;;;;;;;;5046481;28;20036;-57
2022/01/27 05:15:14;;;;;;;18.17;8.70;;;;;;;;;;5046656;28;20013;-56
2022/01/27 05:17:40;;;;;;;17.42;7.90;;;;;;;;;;5046561;28;20252;-57
2022/01/27 05:20:07;;;;;;;17.33;8.38;;;;;;;;;;5044609;28;20431;-56
2022/01/27 05:22:34;;;;;;;16.83;7.90;;;;;;;;;;5044734;28;20048;-57
2022/01/27 05:25:00;;;;;;;15.40;7.18;;;;;;;;;;5046580;28;20032;-57
2022/01/27 05:27:26;;;;;;;16.67;8.25;;;;;;;;;;5044919;28;20028;-57
2022/01/27 05:29:52;;;;;;;16.42;7.35;;;;;;;;;;5042481;28;20090;-57
2022/01/27 05:32:19;;;;;;;18.23;8.18;;;;;;;;;;5046913;28;20043;-57
2022/01/27 05:34:45;;;;;;;16.25;8.25;;;;;;;;;;5046811;28;20503;-57
2022/01/27 05:37:11;;;;;;;18.48;8.35;;;;;;;;;;5046090;28;20099;-57
2022/01/27 05:39:37;;;;;;;15.07;7.50;;;;;;;;;;5043514;28;20044;-57
2022/01/27 05:42:03;;;;;;;19.20;9.88;;;;;;;;;;5046293;28;20085;-57
2022/01/27 05:44:31;;;;;;;19.17;9.35;;;;;;;;;;5045647;28;20036;-57
2022/01/27 05:46:57;;;;;;;16.63;8.05;;;;;;;;;;5036312;28;20029;-57
2022/01/27 05:49:23;;;;;;;16.95;7.97;;;;;;;;;;5030014;28;20061;-57
2022/01/27 05:51:49;;;;;;;15.68;7.88;;;;;;;;;;5045432;28;20672;-57
2022/01/27 05:54:15;;;;;;;16.52;7.28;;;;;;;;;;5041658;28;20026;-57
2022/01/27 05:56:42;;;;;;;13.50;7.25;;;;;;;;;;5025539;28;20029;-57
2022/01/27 05:59:08;;;;;;;17.30;7.75;;;;;;;;;;5037071;28;20566;-57
2022/01/27 06:01:34;;;;;;;14.85;6.65;;;;;;;;;;5045920;28;20492;-57
2022/01/27 06:04:00;;;;;;;14.95;7.07;;;;;;;;;;5048696;28;20033;-57
2022/01/27 06:06:26;;;;;;;13.60;5.97;;;;;;;;;;5049995;28;20551;-57
2022/01/27 06:08:52;;;;;;;12.93;6.28;;;;;;;;;;5050214;28;21051;-57
2022/01/27 06:11:18;;;;;;;14.43;6.53;;;;;;;;;;5048401;28;20408;-57
2022/01/27 06:13:44;;;;;;;12.65;6.63;;;;;;;;;;5049681;28;20064;-57
2022/01/27 06:16:12;;;;;;;14.93;7.13;;;;;;;;;;5049886;28;20108;-57
2022/01/27 06:18:38;;;;;;;17.67;8.18;;;;;;;;;;5049649;28;20040;-57
2022/01/27 06:21:06;;;;;;;15.18;7.47;;;;;;;;;;5047948;28;20032;-57
2022/01/27 06:23:32;;;;;;;16.58;7.53;;;;;;;;;;5049966;28;20032;-57
2022/01/27 06:25:59;;;;;;;13.30;7.18;;;;;;;;;;5048579;28;20032;-57
2022/01/27 06:28:25;;;;;;;15.10;7.55;;;;;;;;;;5047508;28;20037;-57
2022/01/27 06:30:51;;;;;;;15.77;7.25;;;;;;;;;;5049884;28;20534;-57
2022/01/27 06:33:17;;;;;;;16.55;7.88;;;;;;;;;;5049582;28;20043;-57
2022/01/27 06:35:43;;;;;;;20.27;8.90;;;;;;;;;;5049434;28;20108;-57
2022/01/27 06:38:09;;;;;;;16.88;8.35;;;;;;;;;;5048106;28;20469;-57
2022/01/27 06:40:35;;;;;;;19.08;8.95;;;;;;;;;;5047386;28;20023;-57
2022/01/27 06:43:01;;;;;;;19.17;8.75;;;;;;;;;;5049793;28;20066;-59
2022/01/27 06:45:27;;;;;;;21.55;9.00;;;;;;;;;;5042037;28;20033;-57
2022/01/27 06:47:54;;;;;;;17.88;8.60;;;;;;;;;;5029727;28;20029;-57
2022/01/27 06:50:20;;;;;;;15.73;8.00;;;;;;;;;;5029438;28;20034;-57
2022/01/27 06:52:46;;;;;;;18.10;8.63;;;;;;;;;;5029108;28;20033;-57
2022/01/27 06:55:13;;;;;;;17.92;8.13;;;;;;;;;;5028410;28;20235;-57
2022/01/27 06:57:40;;;;;;;18.65;8.40;;;;;;;;;;5028678;28;20033;-57
2022/01/27 07:00:07;;;;;;;17.30;7.30;;;;;;;;;;5029362;28;20101;-57
2022/01/27 07:02:33;;;;;;;16.02;8.43;;;;;;;;;;5031680;28;20037;-57
2022/01/27 07:04:59;;;;;;;14.82;7.90;;;;;;;;;;5049127;28;20547;-57
2022/01/27 07:07:25;;;;;;;17.33;8.23;;;;;;;;;;5048569;28;20028;-56
2022/01/27 07:09:51;;;;;;;18.25;8.23;;;;;;;;;;5033084;28;20036;-57
2022/01/27 07:12:17;;;;;;;17.25;7.85;;;;;;;;;;5028528;28;20677;-57
2022/01/27 07:14:43;;;;;;;15.65;7.20;;;;;;;;;;5028459;28;20021;-57
2022/01/27 07:17:09;;;;;;;16.85;7.78;;;;;;;;;;5028807;28;20026;-57
2022/01/27 07:19:35;;;;;;;17.20;7.93;;;;;;;;;;5028616;28;20028;-57
2022/01/27 07:22:01;;;;;;;15.73;7.07;;;;;;;;;;5030118;28;20512;-57
2022/01/27 07:24:27;;;;;;;17.05;8.23;;;;;;;;;;5029243;28;20025;-56
2022/01/27 07:26:53;;;;;;;18.70;8.70;;;;;;;;;;5028255;28;20025;-57
2022/01/27 07:29:20;;;;;;;18.00;7.60;;;;;;;;;;5030568;28;20026;-57
2022/01/27 07:31:46;;;;;;;17.15;8.25;;;;;;;;;;5028603;28;20366;-57
2022/01/27 07:34:12;;;;;;;16.00;7.47;;;;;;;;;;5028806;28;20624;-57
2022/01/27 07:36:40;;;;;;;18.80;8.88;;;;;;;;;;5040176;28;20083;-56
2022/01/27 07:39:12;;;;;;;13.07;7.50;;;;;;;;;;5046670;28;20534;-57
2022/01/27 07:41:38;;;;;;;18.10;7.88;;;;;;;;;;5045780;28;20111;-57
2022/01/27 07:44:05;;;;;;;16.73;7.30;;;;;;;;;;5030208;28;20511;-57
2022/01/27 07:46:31;;;;;;;14.15;7.28;;;;;;;;;;5028949;28;20030;-57
2022/01/27 07:48:57;;;;;;;14.57;6.85;;;;;;;;;;5038379;28;20040;-57
2022/01/27 07:51:24;;;;;;;14.20;6.63;;;;;;;;;;5047439;28;20112;-57
2022/01/27 07:53:50;;;;;;;17.95;7.82;;;;;;;;;;5029709;28;20083;-57
2022/01/27 07:56:16;;;;;;;16.02;7.55;;;;;;;;;;5027267;28;20029;-57
2022/01/27 07:58:43;;;;;;;15.27;7.28;;;;;;;;;;5031975;28;20036;-57
2022/01/27 08:01:09;;;;;;;16.55;7.88;;;;;;;;;;5039888;28;20063;-57
2022/01/27 08:03:39;;;;;;;15.60;7.35;;;;;;;;;;5027546;28;20539;-59
2022/01/27 08:06:08;;;;;;;16.90;7.82;;;;;;;;;;5027243;28;20107;-57
2022/01/27 08:08:34;;;;;;;16.90;8.15;;;;;;;;;;5026143;28;20029;-57
2022/01/27 08:11:00;;;;;;;18.00;8.30;;;;;;;;;;5026406;28;20041;-57
2022/01/27 08:13:27;;;;;;;13.25;7.03;;;;;;;;;;5025945;28;20029;-57
2022/01/27 08:15:53;;;;;;;15.90;8.10;;;;;;;;;;5025964;28;20044;-57
2022/01/27 08:18:20;;;;;;;17.77;8.32;;;;;;;;;;5027023;28;20020;-57
2022/01/27 08:20:47;;;;;;;17.90;8.35;;;;;;;;;;5026033;28;20026;-57
2022/01/27 08:23:14;;;;;;;18.88;8.98;;;;;;;;;;5027846;28;20044;-57
2022/01/27 08:25:41;;;;;;;16.10;8.25;;;;;;;;;;5029260;28;20033;-57
2022/01/27 08:28:18;;;;;;;18.17;8.38;;;;;;;;;;5038641;28;20035;-57
2022/01/27 08:30:48;;;;;;;16.85;7.35;;;;;;;;;;5033227;28;20048;-57
2022/01/27 08:33:17;;;;;;;15.80;7.82;;;;;;;;;;5038839;28;20029;-57
2022/01/27 08:35:43;;;;;;;21.42;8.55;;;;;;;;;;5026662;28;20065;-57
2022/01/27 08:38:10;;;;;;;18.65;9.00;;;;;;;;;;5031979;28;20044;-57
2022/01/27 08:40:36;;;;;;;20.67;9.45;;;;;;;;;;5035087;28;20036;-57
2022/01/27 08:43:03;;;;;;;13.95;7.68;;;;;;;;;;5046709;28;20117;-57
2022/01/27 08:45:29;;;;;;;18.50;8.60;;;;;;;;;;5037563;28;20087;-57
2022/01/27 08:47:57;;;;;;;19.02;9.00;;;;;;;;;;5045639;28;20035;-57
2022/01/27 08:50:24;;;;;;;21.55;10.35;;;;;;;;;;5029195;28;20029;-57
2022/01/27 08:52:51;;;;;;;19.92;9.77;;;;;;;;;;5032082;28;20561;-57
2022/01/27 08:55:17;;;;;;;16.48;8.77;;;;;;;;;;5030898;28;20029;-56
2022/01/27 08:57:44;;;;;;;15.93;7.82;;;;;;;;;;5047504;28;20021;-56
2022/01/27 09:00:11;;;;;;;17.65;8.35;;;;;;;;;;5040401;28;20481;-56
2022/01/27 09:02:38;;;;;;;18.80;8.50;;;;;;;;;;5027327;28;20029;-56
2022/01/27 09:05:05;;;;;;;17.10;8.70;;;;;;;;;;5027879;28;20033;-57
2022/01/27 09:07:31;;;;;;;19.52;8.02;;;;;;;;;;5027503;28;20131;-57
2022/01/27 09:09:57;;;;;;;16.52;7.75;;;;;;;;;;5027861;28;20040;-57
2022/01/27 09:12:23;;;;;;;15.05;7.65;;;;;;;;;;5027269;28;20394;-57
2022/01/27 09:14:52;;;;;;;16.38;8.00;;;;;;;;;;5027711;28;20061;-57
2022/01/27 09:17:18;;;;;;;16.05;8.38;;;;;;;;;;5031099;28;20140;-57
2022/01/27 09:19:46;;;;;;;12.05;6.55;;;;;;;;;;5042527;28;20032;-57
2022/01/27 09:22:14;;;;;;;14.73;7.53;;;;;;;;;;5037791;28;20032;-56
2022/01/27 09:24:58;;;;;;;21.63;8.85;;;;;;;;;;5033411;28;20072;-57
2022/01/27 09:27:25;;;;;;;17.45;8.43;;;;;;;;;;5046126;28;20021;-56
2022/01/27 09:29:51;;;;;;;15.18;7.40;;;;;;;;;;5046938;28;20028;-57
2022/01/27 09:32:18;;;;;;;14.45;7.30;;;;;;;;;;5046995;28;20025;-57
2022/01/27 09:34:45;;;;;;;16.27;7.28;;;;;;;;;;5036639;28;20025;-56
2022/01/27 09:37:11;;;;;;;15.07;7.43;;;;;;;;;;5040964;28;20120;-57
2022/01/27 09:39:38;;;;;;;14.32;6.80;;;;;;;;;;5036989;28;20029;-56
2022/01/27 09:42:05;;;;;;;14.98;7.38;;;;;;;;;;5037525;28;20025;-56
2022/01/27 09:44:32;;;;;;;12.77;6.55;;;;;;;;;;5027604;28;20040;-57
2022/01/27 09:47:01;;;;;;;14.10;6.57;;;;;;;;;;5031623;28;20495;-57
2022/01/27 09:49:35;;;;;;;11.40;6.40;;;;;;;;;;5028194;28;20026;-56
2022/01/27 09:52:01;;;;;;;14.57;7.07;;;;;;;;;;5032454;28;20030;-59
2022/01/27 09:54:28;;;;;;;12.05;6.13;;;;;;;;;;5026916;28;20580;-57
2022/01/27 09:56:54;;;;;;;12.02;6.10;;;;;;;;;;5026886;28;20408;-57
2022/01/27 09:59:21;;;;;;;26.15;12.80;;;;;;;;;;5027067;28;20507;-56
2022/01/27 10:01:53;;;;;;;29.02;13.15;;;;;;;;;;5043785;28;20558;-56
2022/01/27 10:04:20;;;;;;;25.83;12.98;;;;;;;;;;5047086;28;20104;-56
2022/01/27 10:06:48;;;;;;;21.67;10.93;;;;;;;;;;5030212;28;20032;-56
2022/01/27 10:09:17;;;;;;;26.42;12.73;;;;;;;;;;5027488;28;20112;-56
2022/01/27 10:11:46;;;;;;;21.77;11.27;;;;;;;;;;5028075;28;20029;-56
2022/01/27 10:14:20;;;;;;;18.67;9.50;;;;;;;;;;5027110;28;20049;-57
2022/01/27 10:16:49;;;;;;;18.25;9.73;;;;;;;;;;5026816;28;20053;-57
2022/01/27 10:19:15;;;;;;;16.77;8.73;;;;;;;;;;5043907;28;20033;-57
2022/01/27 10:21:42;;;;;;;17.92;9.38;;;;;;;;;;5038932;28;20084;-57
2022/01/27 10:24:16;;;;;;;15.70;7.85;;;;;;;;;;5036874;28;20071;-57
2022/01/27 10:26:46;;;;;;;17.40;8.75;;;;;;;;;;5037777;28;20056;-56
2022/01/27 10:29:29;;;;;;;16.33;8.30;;;;;;;;;;5036002;28;20018;-57
2022/01/27 10:32:21;;;;;;;17.80;8.57;;;;;;;;;;5046110;28;20112;-57
2022/01/27 10:34:54;;;;;;;19.35;9.55;;;;;;;;;;5037458;28;20140;-57
2022/01/27 10:37:21;;;;;;;16.73;8.40;;;;;;;;;;5028488;28;20041;-57
2022/01/27 10:39:47;;;;;;;15.95;8.05;;;;;;;;;;5039153;28;20025;-56
2022/01/27 10:42:14;;;;;;;14.35;7.60;;;;;;;;;;5039679;28;20705;-56
2022/01/27 10:44:47;;;;;;;16.77;7.63;;;;;;;;;;5026376;28;20100;-57
2022/01/27 10:47:18;;;;;;;13.10;6.90;;;;;;;;;;5028371;28;20047;-56
2022/01/27 10:49:52;;;;;;;15.95;7.47;;;;;;;;;;5026677;28;20416;-56
2022/01/27 10:52:28;;;;;;;16.33;7.43;;;;;;;;;;5030321;28;20061;-56
2022/01/27 10:55:00;;;;;;;16.55;7.93;;;;;;;;;;5029959;28;20025;-56
2022/01/27 10:57:26;;;;;;;16.42;6.93;;;;;;;;;;5032319;28;20091;-56
2022/01/27 11:00:07;;;;;;;12.98;6.68;;;;;;;;;;5037165;28;20060;-56
2022/01/27 11:02:47;;;;;;;13.52;7.05;;;;;;;;;;5036615;28;20079;-57
2022/01/27 11:05:17;;;;;;;17.25;8.20;;;;;;;;;;5038587;28;20037;-56
2022/01/27 11:07:44;;;;;;;20.05;9.43;;;;;;;;;;5042561;28;20036;-57
2022/01/27 11:10:10;;;;;;;21.35;10.52;;;;;;;;;;5046159;28;20030;-56
2022/01/27 11:12:36;;;;;;;21.77;10.50;;;;;;;;;;5030036;28;20562;-57
2022/01/27 11:15:03;;;;;;;19.25;10.00;;;;;;;;;;5041667;28;20036;-57
2022/01/27 11:17:35;;;;;;;21.80;10.90;;;;;;;;;;5045604;28;20021;-57
2022/01/27 11:25:51;;;;;;;16.92;8.75;;;;;;;;;;5035688;28;20080;-57
2022/01/27 11:27:55;;;;;;;15.68;8.00;;;;;;;;;;5043100;28;20039;-57
2022/01/27 11:30:40;;;;;;;14.60;7.65;;;;;;;;;;5034078;28;20378;-57
2022/01/27 11:33:10;;;;;;;12.68;6.85;;;;;;;;;;5031827;28;20536;-57
2022/01/27 11:35:38;;;;;;;17.17;7.50;;;;;;;;;;5029590;28;21031;-56
2022/01/27 11:38:08;;;;;;;15.00;7.47;;;;;;;;;;5039045;28;20075;-57
2022/01/27 11:40:36;;;;;;;15.02;7.38;;;;;;;;;;5048683;28;20024;-57
2022/01/27 11:43:03;;;;;;;14.02;7.55;;;;;;;;;;5049519;28;20108;-57
2022/01/27 11:45:29;;;;;;;15.52;7.72;;;;;;;;;;5049085;28;20029;-57
2022/01/27 11:47:58;;;;;;;16.08;8.40;;;;;;;;;;5039165;28;20067;-57
2022/01/27 11:50:36;;;;;;;15.20;7.95;;;;;;;;;;5038286;28;20595;-57
2022/01/27 11:53:06;;;;;;;18.00;9.25;;;;;;;;;;5037294;28;20025;-56
2022/01/27 11:55:35;;;;;;;18.02;9.48;;;;;;;;;;5028620;28;20045;-56
2022/01/27 11:58:13;;;;;;;16.50;8.98;;;;;;;;;;5040297;28;20028;-56
2022/01/27 12:00:39;;;;;;;16.95;8.68;;;;;;;;;;5032719;28;20026;-56
2022/01/27 12:03:15;;;;;;;17.52;9.20;;;;;;;;;;5037963;28;20061;-56
2022/01/27 12:05:45;;;;;;;19.90;10.05;;;;;;;;;;5034016;28;20033;-56
2022/01/27 12:08:11;;;;;;;16.80;8.68;;;;;;;;;;5039685;28;20087;-56
2022/01/27 12:10:49;;;;;;;15.82;8.20;;;;;;;;;;5059505;28;20484;-56
2022/01/27 12:13:29;;;;;;;18.00;8.52;;;;;;;;;;5043120;28;20044;-56
2022/01/27 12:19:03;;;;;;;15.50;8.57;;;;;;;;;;5047557;28;20033;-56
2022/01/27 12:21:29;;;;;;;15.13;8.57;;;;;;;;;;5036540;28;20415;-57
2022/01/27 12:24:24;;;;;;;13.50;8.43;;;;;;;;;;5043169;28;20033;-56
2022/01/27 12:26:55;;;;;;;15.07;7.85;;;;;;;;;;5035149;28;20021;-56
2022/01/27 12:29:23;;;;;;;15.25;7.72;;;;;;;;;;5028198;28;20032;-56
2022/01/27 12:31:50;;;;;;;15.57;7.25;;;;;;;;;;5041388;28;20108;-56
2022/01/27 12:34:16;;;;;;;14.07;7.40;;;;;;;;;;5048255;28;20029;-56
2022/01/27 12:36:55;;;;;;;14.00;7.28;;;;;;;;;;5046012;28;20103;-56
2022/01/27 12:39:21;;;;;;;14.30;7.55;;;;;;;;;;5028444;28;20044;-56
2022/01/27 12:41:48;;;;;;;11.88;6.85;;;;;;;;;;5030615;28;20100;-56
2022/01/27 12:44:15;;;;;;;14.15;7.55;;;;;;;;;;5048142;28;20028;-56
2022/01/27 12:47:00;;;;;;;13.55;7.35;;;;;;;;;;5046657;28;20017;-57
2022/01/27 12:49:36;;;;;;;13.02;7.03;;;;;;;;;;5030410;28;20032;-57
2022/01/27 12:52:05;;;;;;;14.15;7.40;;;;;;;;;;5028102;28;20067;-56
2022/01/27 12:54:32;;;;;;;14.23;7.30;;;;;;;;;;5026556;28;20075;-56
2022/01/27 12:56:58;;;;;;;12.70;6.43;;;;;;;;;;5031244;28;20017;-56
2022/01/27 12:59:25;;;;;;;14.05;6.90;;;;;;;;;;5037465;28;20037;-56
2022/01/27 13:02:01;;;;;;;14.52;7.50;;;;;;;;;;5027173;28;20044;-56
2022/01/27 13:04:28;;;;;;;15.05;7.57;;;;;;;;;;5026321;28;20032;-55
2022/01/27 13:06:55;;;;;;;14.63;7.88;;;;;;;;;;5025416;28;20381;-55
2022/01/27 13:09:22;;;;;;;15.80;8.18;;;;;;;;;;5025586;28;20067;-54
2022/01/27 13:11:51;;;;;;;14.82;7.47;;;;;;;;;;5024141;28;20040;-56
2022/01/27 13:14:17;;;;;;;13.75;7.55;;;;;;;;;;5032440;28;20040;-54
2022/01/27 13:16:48;;;;;;;16.23;8.43;;;;;;;;;;5033389;28;20021;-54
2022/01/27 13:21:52;;;;;;;15.60;8.18;;;;;;;;;;5033032;28;20029;-53
2022/01/27 13:24:19;;;;;;;17.27;8.70;;;;;;;;;;5036396;28;20650;-55
2022/01/27 13:26:46;;;;;;;13.65;8.05;;;;;;;;;;5051445;28;20028;-55
2022/01/27 13:29:19;;;;;;;16.38;8.48;;;;;;;;;;5036699;28;20127;-55
2022/01/27 13:31:45;;;;;;;15.95;8.75;;;;;;;;;;5043358;28;20385;-55
2022/01/27 13:34:12;;;;;;;15.85;8.32;;;;;;;;;;5040454;28;20029;-56
2022/01/27 13:36:38;;;;;;;15.65;8.35;;;;;;;;;;5031114;28;20102;-55
2022/01/27 13:39:22;;;;;;;15.93;8.15;;;;;;;;;;5025337;28;20477;-56
2022/01/27 13:41:49;;;;;;;17.10;8.40;;;;;;;;;;5050330;28;20758;-56
2022/01/27 13:44:17;;;;;;;15.80;8.25;;;;;;;;;;5052108;28;20088;-56
2022/01/27 13:46:43;;;;;;;14.70;7.72;;;;;;;;;;5043725;28;20037;-56
2022/01/27 13:49:09;;;;;;;15.70;8.23;;;;;;;;;;5037812;28;20104;-56
2022/01/27 13:51:51;;;;;;;14.60;8.07;;;;;;;;;;5038307;28;20060;-56
2022/01/27 13:54:17;;;;;;;14.68;7.85;;;;;;;;;;5036943;28;20037;-55
2022/01/27 13:56:52;;;;;;;14.90;7.28;;;;;;;;;;5030446;28;20644;-55
2022/01/27 13:59:23;;;;;;;13.38;7.43;;;;;;;;;;5024534;28;20033;-57
2022/01/27 14:01:49;;;;;;;16.13;7.78;;;;;;;;;;5029139;28;20132;-56
2022/01/27 14:04:16;;;;;;;13.73;7.30;;;;;;;;;;5041915;28;20107;-55
2022/01/27 14:06:49;;;;;;;13.40;7.53;;;;;;;;;;5029465;28;20060;-55
2022/01/27 14:09:20;;;;;;;17.53;8.83;;;;;;;;;;5033384;28;20044;-55
2022/01/27 14:11:54;;;;;;;15.60;7.85;;;;;;;;;;5037268;28;20060;-55
2022/01/27 14:14:21;;;;;;;;;;;;;;;;;;5024798;28;20040;-55
2022/01/27 14:16:47;;;;;;;15.38;7.35;;;;;;;;;;5024075;28;19909;-56
2022/01/27 14:19:14;;;;;;;17.25;7.90;;;;;;;;;;5029760;28;20360;-56
2022/01/27 14:21:42;;;;;;;16.45;8.15;;;;;;;;;;5032923;28;20025;-55
2022/01/27 14:24:11;;;;;;;16.30;8.07;;;;;;;;;;5037177;28;20041;-55
2022/01/27 14:26:44;;;;;;;15.05;7.25;;;;;;;;;;5042916;28;20022;-54
2022/01/27 14:29:15;;;;;;;15.93;7.30;;;;;;;;;;5047965;28;20035;-55
2022/01/27 14:31:43;;;;;;;14.82;7.00;;;;;;;;;;5055231;28;20158;-55
2022/01/27 14:34:10;;;;;;;15.27;7.72;;;;;;;;;;5038972;28;20172;-54
2022/01/27 14:36:38;;;;;;;16.33;8.20;;;;;;;;;;5032213;28;20520;-54
2022/01/27 14:39:04;;;;;;;16.25;7.68;;;;;;;;;;5028358;28;20076;-54
2022/01/27 14:41:30;;;;;;;16.40;8.15;;;;;;;;;;5046801;28;20017;-54
2022/01/27 14:43:57;;;;;;;19.48;8.95;;;;;;;;;;5037444;28;20472;-54
2022/01/27 14:46:37;;;;;;;19.30;9.93;;;;;;;;;;5044493;28;20400;-56
2022/01/27 14:49:06;;;;;;;23.00;12.13;;;;;;;;;;5045575;28;20061;-55
2022/01/27 14:51:34;;;;;;;30.48;13.45;;;;;;;;;;5028098;28;20116;-54
2022/01/27 14:54:00;;;;;;;26.30;13.30;;;;;;;;;;5055625;28;20107;-54
2022/01/27 14:56:27;;;;;;;28.35;13.70;;;;;;;;;;5065098;28;20175;-55
2022/01/27 14:58:53;;;;;;;30.80;13.60;;;;;;;;;;5047156;28;20673;-54
2022/01/27 15:01:19;;;;;;;23.55;12.10;;;;;;;;;;5043559;28;20082;-54
2022/01/27 15:03:45;;;;;;;22.42;12.05;;;;;;;;;;5045779;28;20033;-54
2022/01/27 15:06:11;;;;;;;23.92;11.80;;;;;;;;;;5038759;28;20025;-54
2022/01/27 15:08:38;;;;;;;25.50;12.45;;;;;;;;;;5037974;28;20060;-55
2022/01/27 15:11:04;;;;;;;23.60;11.60;;;;;;;;;;5030781;28;20611;-55
2022/01/27 15:13:30;;;;;;;21.15;11.02;;;;;;;;;;5032748;28;20029;-56
2022/01/27 15:18:50;;;;;;;17.73;8.70;;;;;;;;;;5040761;28;20439;-56
2022/01/27 15:21:19;;;;;;;17.67;8.88;;;;;;;;;;5056225;28;20017;-56
2022/01/27 15:23:46;;;;;;;18.65;9.52;;;;;;;;;;5035522;28;20061;-56
2022/01/27 15:26:12;;;;;;;17.17;8.38;;;;;;;;;;5029879;28;20033;-56
2022/01/27 15:28:38;;;;;;;16.38;8.30;;;;;;;;;;5048597;28;20104;-56
2022/01/27 15:31:05;;;;;;;17.13;8.07;;;;;;;;;;5052195;28;20021;-55